createdAt,value
2022-10-03T00:03:50.748Z,9.40
2022-10-03T00:06:03.624Z,9.40
2022-10-03T00:08:14.533Z,9.40
2022-10-03T00:10:30.625Z,9.30
2022-10-03T00:12:49.048Z,9.20
2022-10-03T00:15:02.846Z,9.20
2022-10-03T00:17:11.669Z,9.10
2022-10-03T00:19:25.717Z,9.00
2022-10-03T00:21:42.615Z,9.10
2022-10-03T00:23:56.017Z,9.10
2022-10-03T00:26:25.630Z,9.00
2022-10-03T00:28:51.466Z,9.00
2022-10-03T00:31:09.470Z,9.00
2022-10-03T00:33:21.899Z,9.00
2022-10-03T00:35:42.104Z,8.90
2022-10-03T00:37:55.107Z,8.90
2022-10-03T00:42:55.764Z,8.80
2022-10-03T00:52:28.186Z,8.60
2022-10-03T00:54:53.623Z,8.60
2022-10-03T00:57:13.352Z,8.50
2022-10-03T00:59:33.567Z,8.40
2022-10-03T01:01:44.012Z,8.40
2022-10-03T01:03:54.708Z,8.40
2022-10-03T01:12:47.343Z,8.40
2022-10-03T01:15:05.344Z,8.40
2022-10-03T01:17:19.754Z,8.30
2022-10-03T01:20:01.137Z,8.20
2022-10-03T01:22:28.623Z,8.10
2022-10-03T01:24:52.234Z,8.00
2022-10-03T01:29:26.796Z,7.80
2022-10-03T01:31:39.555Z,7.90
2022-10-03T01:33:47.598Z,7.90
2022-10-03T01:35:57.832Z,7.80
2022-10-03T01:38:15.610Z,7.80
2022-10-03T01:40:27.325Z,7.70
2022-10-03T01:42:42.699Z,7.60
2022-10-03T01:45:10.359Z,7.60
2022-10-03T01:47:27.299Z,7.60
2022-10-03T01:49:38.425Z,7.50
2022-10-03T01:51:49.756Z,7.50
2022-10-03T01:54:08.860Z,7.40
2022-10-03T01:56:20.203Z,7.40
2022-10-03T01:58:31.413Z,7.40
2022-10-03T02:00:46.809Z,7.40
2022-10-03T02:02:56.264Z,7.30
2022-10-03T02:05:08.721Z,7.40
2022-10-03T02:07:23.220Z,7.30
2022-10-03T02:09:36.647Z,7.20
2022-10-03T02:11:54.170Z,7.20
2022-10-03T02:14:06.485Z,7.20
2022-10-03T02:16:19.524Z,7.20
2022-10-03T02:18:31.218Z,7.20
2022-10-03T02:22:48.403Z,7.10
2022-10-03T02:29:45.576Z,7.10
2022-10-03T02:32:28.438Z,7.20
2022-10-03T02:34:49.564Z,7.20
2022-10-03T02:37:32.035Z,7.30
2022-10-03T02:40:08.687Z,7.40
2022-10-03T02:42:51.533Z,7.50
2022-10-03T02:45:13.348Z,7.60
2022-10-03T02:47:46.424Z,7.60
2022-10-03T02:50:23.395Z,7.60
2022-10-03T02:53:04.957Z,7.70
2022-10-03T02:55:33.119Z,7.80
2022-10-03T02:58:03.168Z,7.90
2022-10-03T03:02:43.505Z,8.00
2022-10-03T03:05:37.007Z,8.10
2022-10-03T03:08:18.746Z,8.20
2022-10-03T03:11:01.939Z,8.30
2022-10-03T03:13:41.176Z,8.30
2022-10-03T03:16:10.666Z,8.40
2022-10-03T03:18:25.922Z,8.50
2022-10-03T03:20:54.102Z,8.50
2022-10-03T03:23:19.018Z,8.50
2022-10-03T03:25:36.852Z,8.60
2022-10-03T03:27:50.605Z,8.70
2022-10-03T03:32:12.040Z,8.80
2022-10-03T03:34:23.753Z,8.80
2022-10-03T03:36:37.079Z,8.90
2022-10-03T03:38:47.628Z,8.90
2022-10-03T03:43:14.627Z,8.80
2022-10-03T03:45:36.454Z,8.70
2022-10-03T03:48:01.596Z,8.60
2022-10-03T03:50:22.051Z,8.60
2022-10-03T03:52:42.657Z,8.60
2022-10-03T03:55:09.542Z,8.70
2022-10-03T03:57:24.206Z,8.70
2022-10-03T03:59:46.442Z,8.60
2022-10-03T04:04:34.728Z,8.70
2022-10-03T04:06:51.478Z,8.50
2022-10-03T04:09:19.148Z,8.60
2022-10-03T04:11:34.429Z,8.50
2022-10-03T04:13:51.579Z,8.40
2022-10-03T04:21:20.265Z,8.30
2022-10-03T04:23:42.889Z,8.20
2022-10-03T04:26:01.360Z,8.20
2022-10-03T04:28:48.191Z,8.20
2022-10-03T04:31:03.887Z,8.30
2022-10-03T04:33:17.100Z,8.30
2022-10-03T04:35:41.596Z,8.40
2022-10-03T04:37:48.875Z,8.40
2022-10-03T04:40:08.545Z,8.50
2022-10-03T04:42:24.268Z,8.60
2022-10-03T04:44:45.745Z,8.60
2022-10-03T04:47:00.590Z,8.70
2022-10-03T04:49:12.169Z,8.80
2022-10-03T04:51:25.515Z,8.80
2022-10-03T04:53:42.471Z,8.80
2022-10-03T04:55:50.148Z,8.80
2022-10-03T04:58:04.956Z,8.90
2022-10-03T05:00:24.755Z,8.90
2022-10-03T05:02:37.222Z,8.90
2022-10-03T05:04:46.731Z,8.90
2022-10-03T05:07:00.709Z,9.00
2022-10-03T05:09:23.048Z,9.00
2022-10-03T05:11:39.710Z,9.10
2022-10-03T05:13:58.398Z,9.10
2022-10-03T05:16:09.328Z,9.20
2022-10-03T05:18:22.349Z,9.20
2022-10-03T05:20:48.572Z,9.20
2022-10-03T05:23:00.455Z,9.30
2022-10-03T05:25:17.976Z,9.40
2022-10-03T05:27:35.767Z,9.40
2022-10-03T05:31:57.232Z,9.40
2022-10-03T05:34:06.567Z,9.40
2022-10-03T05:36:30.238Z,9.50
2022-10-03T05:39:12.228Z,9.50
2022-10-03T05:41:26.231Z,9.60
2022-10-03T05:43:45.294Z,9.60
2022-10-03T05:46:02.282Z,9.70
2022-10-03T05:48:16.035Z,9.70
2022-10-03T05:52:55.709Z,9.70
2022-10-03T05:57:30.871Z,9.90
2022-10-03T06:00:00.749Z,10.00
2022-10-03T06:07:16.764Z,10.20
2022-10-03T06:09:55.619Z,10.30
2022-10-03T06:14:27.496Z,10.30
2022-10-03T06:16:39.916Z,10.30
2022-10-03T06:19:08.445Z,10.20
2022-10-03T06:24:21.080Z,10.20
2022-10-03T06:27:09.623Z,10.30
2022-10-03T06:29:45.323Z,10.30
2022-10-03T06:34:51.870Z,10.50
2022-10-03T06:37:49.393Z,10.60
2022-10-03T06:40:33.502Z,10.70
2022-10-03T06:43:25.055Z,10.70
2022-10-03T06:48:08.874Z,10.70
2022-10-03T06:50:44.034Z,10.70
2022-10-03T06:53:38.977Z,10.60
2022-10-03T06:58:23.293Z,10.90
2022-10-03T07:00:43.055Z,10.90
2022-10-03T07:05:41.261Z,10.80
2022-10-03T07:08:22.797Z,10.90
2022-10-03T07:13:07.844Z,10.90
2022-10-03T07:16:02.884Z,11.00
2022-10-03T07:18:19.991Z,11.20
2022-10-03T07:20:58.609Z,11.50
2022-10-03T07:23:43.677Z,11.80
2022-10-03T07:26:28.087Z,11.90
2022-10-03T07:28:58.353Z,12.10
2022-10-03T07:31:10.060Z,12.30
2022-10-03T07:34:07.279Z,13.10
2022-10-03T07:41:43.492Z,15.10
2022-10-03T07:44:18.109Z,14.90
2022-10-03T07:55:41.787Z,17.90
2022-10-03T08:00:19.856Z,23.10
2022-10-03T08:02:44.700Z,25.40
2022-10-03T08:14:16.039Z,22.60
2022-10-03T08:16:39.315Z,21.70
2022-10-03T08:19:14.452Z,19.80
2022-10-03T08:21:23.865Z,19.40
2022-10-03T08:26:00.616Z,18.70
2022-10-03T08:28:33.413Z,18.60
2022-10-03T08:30:56.424Z,18.40
2022-10-03T08:33:30.972Z,17.60
2022-10-03T08:36:26.138Z,17.20
2022-10-03T08:38:52.565Z,17.30
2022-10-03T08:50:52.901Z,17.40
2022-10-03T08:53:42.903Z,17.00
2022-10-03T08:56:01.478Z,16.60
2022-10-03T09:08:09.449Z,16.60
2022-10-03T09:10:44.534Z,16.30
2022-10-03T09:13:16.877Z,16.20
2022-10-03T09:15:57.005Z,16.10
2022-10-03T09:18:35.741Z,16.10
2022-10-03T09:21:07.123Z,16.10
2022-10-03T09:33:03.591Z,17.00
2022-10-03T09:40:18.209Z,19.00
2022-10-03T09:43:10.107Z,19.10
2022-10-03T09:47:58.860Z,20.70
2022-10-03T09:52:52.440Z,24.30
2022-10-03T09:55:12.790Z,27.50
2022-10-03T10:21:41.902Z,25.30
2022-10-03T10:33:36.995Z,24.90
2022-10-03T10:53:05.482Z,22.70
2022-10-03T10:56:14.873Z,22.60
2022-10-03T11:01:13.258Z,23.00
2022-10-03T11:04:04.634Z,23.60
2022-10-03T12:15:34.432Z,23.60
2022-10-03T12:17:41.773Z,22.30
2022-10-03T12:20:00.939Z,21.80
2022-10-03T12:22:14.278Z,21.70
2022-10-03T12:26:33.205Z,23.20
2022-10-03T12:28:40.558Z,24.00
2022-10-03T12:30:50.969Z,24.00
2022-10-03T12:33:11.879Z,24.70
2022-10-03T12:35:31.192Z,25.00
2022-10-03T12:37:46.655Z,25.80
2022-10-03T12:42:17.607Z,25.50
2022-10-03T13:17:56.418Z,25.80
2022-10-03T13:22:23.216Z,23.30
2022-10-03T13:24:33.579Z,22.70
2022-10-03T13:26:50.021Z,22.50
2022-10-03T13:29:14.195Z,22.90
2022-10-03T13:31:23.945Z,22.70
2022-10-03T13:35:58.609Z,24.10
2022-10-03T13:38:38.110Z,24.60
2022-10-03T13:40:46.391Z,25.00
2022-10-03T14:04:51.753Z,24.00
2022-10-03T14:13:43.522Z,22.40
2022-10-03T14:15:53.357Z,21.90
2022-10-03T14:18:07.171Z,21.60
2022-10-03T14:26:52.465Z,21.20
2022-10-03T14:33:23.709Z,19.80
2022-10-03T14:35:38.235Z,20.00
2022-10-03T14:37:47.888Z,20.10
2022-10-03T14:40:01.318Z,19.80
2022-10-03T14:42:37.262Z,19.70
2022-10-03T14:44:44.742Z,19.30
2022-10-03T14:46:55.295Z,18.90
2022-10-03T14:49:00.636Z,18.30
2022-10-03T14:57:52.871Z,17.00
2022-10-03T15:02:27.995Z,17.00
2022-10-03T15:04:35.852Z,16.90
2022-10-03T15:06:57.948Z,16.80
2022-10-03T15:09:04.692Z,16.70
2022-10-03T15:11:10.192Z,16.50
2022-10-03T15:13:19.249Z,16.30
2022-10-03T15:15:28.039Z,16.20
2022-10-03T15:17:35.120Z,16.10
2022-10-03T15:19:44.411Z,15.90
2022-10-03T15:23:58.405Z,15.60
2022-10-03T15:26:02.318Z,15.40
2022-10-03T15:28:08.467Z,15.30
2022-10-03T15:30:21.580Z,15.30
2022-10-03T15:32:31.561Z,15.20
2022-10-03T15:34:40.757Z,15.10
2022-10-03T15:36:48.285Z,15.00
2022-10-03T15:38:55.373Z,15.00
2022-10-03T15:41:10.186Z,14.80
2022-10-03T15:43:31.503Z,14.70
2022-10-03T15:45:38.306Z,14.60
2022-10-03T15:47:47.544Z,14.60
2022-10-03T15:49:56.096Z,14.70
2022-10-03T15:52:06.870Z,14.60
2022-10-03T15:54:18.187Z,14.50
2022-10-03T15:56:27.495Z,14.30
2022-10-03T15:58:34.280Z,14.20
2022-10-03T16:02:53.737Z,14.20
2022-10-03T16:11:21.440Z,13.90
2022-10-03T16:13:34.997Z,14.10
2022-10-03T16:17:59.300Z,14.20
2022-10-03T16:20:11.760Z,14.00
2022-10-03T16:22:22.325Z,14.00
2022-10-03T16:24:35.362Z,13.90
2022-10-03T16:26:50.739Z,13.90
2022-10-03T16:29:03.633Z,13.80
2022-10-03T16:31:13.467Z,13.70
2022-10-03T16:33:21.575Z,13.60
2022-10-03T16:35:42.482Z,13.60
2022-10-03T16:37:50.789Z,13.60
2022-10-03T16:39:59.917Z,13.70
2022-10-03T16:42:14.083Z,13.70
2022-10-03T16:44:24.342Z,13.70
2022-10-03T16:46:29.872Z,13.70
2022-10-03T16:48:54.477Z,13.60
2022-10-03T16:50:58.998Z,13.60
2022-10-03T16:53:02.886Z,13.50
2022-10-03T16:55:09.349Z,13.40
2022-10-03T16:57:16.410Z,13.30
2022-10-03T16:59:22.160Z,13.40
2022-10-03T17:01:37.883Z,13.30
2022-10-03T17:03:48.300Z,13.10
2022-10-03T17:05:59.786Z,13.10
2022-10-03T17:08:36.966Z,13.00
2022-10-03T17:10:38.624Z,12.80
2022-10-03T17:12:46.616Z,12.50
2022-10-03T17:14:52.585Z,12.20
2022-10-03T17:17:03.229Z,12.00
2022-10-03T17:19:18.117Z,11.90
2022-10-03T17:21:28.856Z,11.80
2022-10-03T17:23:38.085Z,11.50
2022-10-03T17:25:51.923Z,11.30
2022-10-03T17:27:55.910Z,11.20
2022-10-03T17:30:03.931Z,11.00
2022-10-03T17:32:17.009Z,11.00
2022-10-03T17:34:25.072Z,10.90
2022-10-03T17:36:57.646Z,11.10
2022-10-03T17:39:05.665Z,11.30
2022-10-03T17:41:18.829Z,11.40
2022-10-03T17:43:31.761Z,11.50
2022-10-03T17:45:43.147Z,11.70
2022-10-03T17:47:55.594Z,11.70
2022-10-03T17:50:06.726Z,11.60
2022-10-03T17:52:16.979Z,11.60
2022-10-03T17:54:22.930Z,11.70
2022-10-03T17:56:30.142Z,11.80
2022-10-03T17:58:34.853Z,11.90
2022-10-03T18:01:01.455Z,12.00
2022-10-03T18:03:10.519Z,12.00
2022-10-03T18:05:19.868Z,12.00
2022-10-03T18:07:26.519Z,11.90
2022-10-03T18:09:33.074Z,11.80
2022-10-03T18:11:40.495Z,11.80
2022-10-03T18:13:47.526Z,11.60
2022-10-03T18:16:20.464Z,11.50
2022-10-03T18:18:57.616Z,11.40
2022-10-03T18:21:07.440Z,11.20
2022-10-03T18:23:27.059Z,10.90
2022-10-03T18:26:19.252Z,10.90
2022-10-03T18:28:26.355Z,10.80
2022-10-03T18:30:36.121Z,10.50
2022-10-03T18:32:41.848Z,10.40
2022-10-03T18:34:49.100Z,10.20
2022-10-03T18:36:56.485Z,10.20
2022-10-03T18:39:04.692Z,10.10
2022-10-03T18:41:08.899Z,10.00
2022-10-03T18:45:31.516Z,9.80
2022-10-03T18:47:39.669Z,9.80
2022-10-03T18:49:49.270Z,9.80
2022-10-03T18:52:00.372Z,9.70
2022-10-03T18:54:15.368Z,9.60
2022-10-03T18:58:27.111Z,9.50
2022-10-03T19:00:33.870Z,9.40
2022-10-03T19:04:52.179Z,9.20
2022-10-03T19:06:58.284Z,9.00
2022-10-03T19:09:13.043Z,9.10
2022-10-03T19:11:22.766Z,8.90
2022-10-03T19:13:34.095Z,8.70
2022-10-03T19:15:53.116Z,8.70
2022-10-03T19:18:09.758Z,8.50
2022-10-03T19:20:22.849Z,8.60
2022-10-03T19:22:33.815Z,8.60
2022-10-03T19:24:57.777Z,8.40
2022-10-03T19:27:05.583Z,8.40
2022-10-03T19:29:13.515Z,8.30
2022-10-03T19:31:22.707Z,8.20
2022-10-03T19:33:28.915Z,8.10
2022-10-03T19:35:35.059Z,8.30
2022-10-03T19:37:45.739Z,8.20
2022-10-03T19:39:50.030Z,8.10
2022-10-03T19:44:05.585Z,7.80
2022-10-03T19:46:49.118Z,7.80
2022-10-03T19:49:05.997Z,7.70
2022-10-03T19:51:15.382Z,7.70
2022-10-03T19:53:23.394Z,7.80
2022-10-03T19:55:32.481Z,7.70
2022-10-03T19:57:42.581Z,7.50
2022-10-03T19:59:48.280Z,7.60
2022-10-03T20:01:51.948Z,7.60
2022-10-03T20:03:58.072Z,7.50
2022-10-03T20:06:02.657Z,7.50
2022-10-03T20:08:21.346Z,7.50
2022-10-03T20:10:48.455Z,7.40
2022-10-03T20:12:53.687Z,7.30
2022-10-03T20:15:08.714Z,7.30
2022-10-03T20:17:16.657Z,7.30
2022-10-03T20:21:29.991Z,7.50
2022-10-03T20:23:35.936Z,7.30
2022-10-03T20:25:42.586Z,7.20
2022-10-03T20:27:50.354Z,7.20
2022-10-03T20:30:06.493Z,7.10
2022-10-03T20:32:17.853Z,7.10
2022-10-03T20:34:25.207Z,7.20
2022-10-03T20:36:32.196Z,7.30
2022-10-03T20:38:53.444Z,7.10
2022-10-03T20:41:02.639Z,7.00
2022-10-03T20:43:40.403Z,7.10
2022-10-03T20:45:47.725Z,7.10
2022-10-03T20:48:02.367Z,7.20
2022-10-03T20:50:11.767Z,7.20
2022-10-03T20:52:20.145Z,7.10
2022-10-03T20:54:24.877Z,7.20
2022-10-03T20:56:39.145Z,7.10
2022-10-03T20:58:51.077Z,7.20
2022-10-03T21:01:01.977Z,7.10
2022-10-03T21:03:09.182Z,7.30
2022-10-03T21:05:21.313Z,7.40
2022-10-03T21:07:32.489Z,7.30
2022-10-03T21:09:44.626Z,7.40
2022-10-03T21:11:53.783Z,7.30
2022-10-03T21:14:01.612Z,7.30
2022-10-03T21:16:16.731Z,7.30
2022-10-03T21:18:24.271Z,7.40
2022-10-03T21:20:35.904Z,7.30
2022-10-03T21:22:40.014Z,7.20
2022-10-03T21:24:53.141Z,7.30
2022-10-03T21:26:58.704Z,7.20
2022-10-03T21:29:28.270Z,7.10
2022-10-03T21:31:38.540Z,7.00
2022-10-03T21:33:49.492Z,7.00
2022-10-03T21:35:54.091Z,7.00
2022-10-03T21:38:06.377Z,7.10
2022-10-03T21:40:22.913Z,7.00
2022-10-03T21:42:33.443Z,6.90
2022-10-03T21:44:56.295Z,6.80
2022-10-03T21:47:08.592Z,6.70
2022-10-03T21:49:38.667Z,6.60
2022-10-03T21:52:01.099Z,6.70
2022-10-03T21:54:23.080Z,6.60
2022-10-03T21:56:46.021Z,6.50
2022-10-03T21:59:20.787Z,6.60
2022-10-03T22:03:38.695Z,6.40
2022-10-03T22:07:50.909Z,6.20
2022-10-03T22:09:57.551Z,6.20
2022-10-03T22:12:03.763Z,6.30
2022-10-03T22:20:32.561Z,6.10
2022-10-03T22:22:50.597Z,6.00
2022-10-03T22:25:06.783Z,6.10
2022-10-03T22:27:16.950Z,6.10
2022-10-03T22:33:46.951Z,6.00
2022-10-03T22:35:52.777Z,5.90
2022-10-03T22:37:57.450Z,5.70
2022-10-03T22:40:02.492Z,5.70
2022-10-03T22:42:07.924Z,5.70
2022-10-03T22:44:12.878Z,5.80
2022-10-03T22:46:22.944Z,5.70
2022-10-03T22:48:30.394Z,5.80
2022-10-03T22:50:40.234Z,5.80
2022-10-03T22:52:48.242Z,5.60
2022-10-03T22:54:52.546Z,5.60
2022-10-03T22:56:57.611Z,5.60
2022-10-03T22:59:01.995Z,5.50
2022-10-03T23:01:06.924Z,5.50
2022-10-03T23:03:15.005Z,5.60
2022-10-03T23:05:29.906Z,5.40
2022-10-03T23:07:54.272Z,5.60
2022-10-03T23:10:06.265Z,5.30
2022-10-03T23:12:12.242Z,5.30
2022-10-03T23:14:22.681Z,5.30
2022-10-03T23:16:52.914Z,5.40
2022-10-03T23:19:10.026Z,5.20
2022-10-03T23:21:14.135Z,5.20
2022-10-03T23:23:23.882Z,5.30
2022-10-03T23:27:53.223Z,5.10
2022-10-03T23:30:47.628Z,5.10
2022-10-03T23:35:35.956Z,5.10
2022-10-03T23:37:47.312Z,5.10
2022-10-03T23:40:20.318Z,5.20
2022-10-03T23:42:38.976Z,5.20
2022-10-03T23:44:49.567Z,5.20
2022-10-03T23:46:53.598Z,5.10
2022-10-03T23:48:59.568Z,5.00
2022-10-03T23:51:06.599Z,5.00
2022-10-03T23:53:21.509Z,4.90
2022-10-03T23:55:28.419Z,4.90
2022-10-03T23:57:39.756Z,4.90
2022-10-03T23:59:43.457Z,4.90
